Time;durP1;ratioP1;P1;durP2;ratioP2;P2;SDS_P1;SDS_P2;PMS_P1;PMS_P2;Temp;Humidity;BMP_temperature;BMP_pressure;BME280_temperature;BME280_humidity;BME280_pressure;Samples;Min_cycle;Max_cycle;Signal;HPM_P1;HPM_P2
2023/06/05 00:01:43;;;;;;;8.50;5.27;;;9.60;95.80;;;;;;4815474;29;20054;-69
2023/06/05 00:04:09;;;;;;;8.40;5.05;;;9.60;95.80;;;;;;4822011;29;20053;-69
2023/06/05 00:06:37;;;;;;;7.93;5.43;;;9.70;95.90;;;;;;4806188;29;20387;-69
2023/06/05 00:09:06;;;;;;;6.93;4.80;;;9.70;96.20;;;;;;4796744;29;20045;-69
2023/06/05 00:11:32;;;;;;;8.30;5.28;;;9.80;96.10;;;;;;4806469;29;20054;-69
2023/06/05 00:13:58;;;;;;;7.45;5.10;;;9.80;95.40;;;;;;4794734;29;20379;-69
2023/06/05 00:16:24;;;;;;;7.83;4.57;;;9.90;95.40;;;;;;4806303;29;20117;-70
2023/06/05 00:18:50;;;;;;;9.37;5.27;;;9.90;95.50;;;;;;4817656;29;20094;-69
2023/06/05 00:21:15;;;;;;;7.95;5.38;;;10.00;95.90;;;;;;4805464;29;20058;-69
2023/06/05 00:23:41;;;;;;;9.80;4.67;;;10.10;96.20;;;;;;4809354;29;20042;-70
2023/06/05 00:26:07;;;;;;;8.20;4.83;;;10.10;95.40;;;;;;4816112;29;20575;-69
2023/06/05 00:28:33;;;;;;;7.23;4.20;;;10.20;95.70;;;;;;4797301;29;20330;-70
2023/06/05 00:31:00;;;;;;;7.00;4.63;;;10.30;96.10;;;;;;4813259;29;20042;-70
2023/06/05 00:33:26;;;;;;;6.57;4.22;;;10.30;96.10;;;;;;4821687;29;20053;-70
2023/06/05 00:35:52;;;;;;;7.05;4.28;;;10.40;95.30;;;;;;4820121;29;20042;-69
2023/06/05 00:38:18;;;;;;;8.10;5.00;;;10.50;96.40;;;;;;4802680;29;20042;-70
2023/06/05 00:40:44;;;;;;;5.97;4.47;;;10.50;95.70;;;;;;4820875;29;20038;-70
2023/06/05 00:43:10;;;;;;;7.43;5.00;;;10.60;95.30;;;;;;4805989;29;20106;-69
2023/06/05 00:45:35;;;;;;;6.87;4.23;;;10.60;95.30;;;;;;4809584;29;20482;-70
2023/06/05 00:48:02;;;;;;;7.37;4.53;;;10.70;95.30;;;;;;4811592;29;20050;-69
2023/06/05 00:50:31;;;;;;;7.20;4.80;;;10.70;95.30;;;;;;4808526;29;20053;-69
2023/06/05 00:52:57;;;;;;;6.38;4.68;;;10.80;95.30;;;;;;4804546;29;20061;-69
2023/06/05 00:55:22;;;;;;;8.27;4.80;;;10.80;95.30;;;;;;4815820;29;20479;-70
2023/06/05 00:57:48;;;;;;;6.53;4.63;;;10.90;95.30;;;;;;4821903;29;20125;-70
2023/06/05 01:00:14;;;;;;;7.00;4.50;;;10.90;95.00;;;;;;4820033;29;20054;-70
2023/06/05 01:02:40;;;;;;;6.78;4.93;;;10.90;95.20;;;;;;4799735;29;20066;-70
2023/06/05 01:05:07;;;;;;;6.20;4.30;;;10.90;95.00;;;;;;4816458;29;20049;-70
2023/06/05 01:07:34;;;;;;;6.38;4.65;;;11.00;95.50;;;;;;4814430;29;20054;-70
2023/06/05 01:10:03;;;;;;;7.65;4.43;;;11.00;95.90;;;;;;4816938;29;20526;-70
2023/06/05 01:12:56;;;;;;;7.25;4.32;;;11.10;95.50;;;;;;4798888;29;20050;-70
2023/06/05 01:15:28;;;;;;;8.00;4.80;;;11.10;95.10;;;;;;4818422;29;20109;-70
2023/06/05 01:17:58;;;;;;;6.75;4.60;;;11.10;95.00;;;;;;4814309;29;20053;-70
2023/06/05 01:20:34;;;;;;;6.15;4.25;;;11.10;95.30;;;;;;4825441;29;20562;-70
2023/06/05 01:23:04;;;;;;;9.77;4.90;;;11.10;95.10;;;;;;4806771;29;20050;-70
2023/06/05 01:25:29;;;;;;;6.53;4.22;;;11.10;94.80;;;;;;4814234;29;20414;-69
2023/06/05 01:28:05;;;;;;;5.63;3.60;;;11.10;94.60;;;;;;4818081;29;20049;-70
2023/06/05 01:30:40;;;;;;;5.25;3.92;;;11.20;95.10;;;;;;4816894;29;20132;-70
2023/06/05 01:33:20;;;;;;;5.63;3.58;;;11.20;94.50;;;;;;4813852;29;20474;-70
2023/06/05 01:35:51;;;;;;;7.60;3.75;;;11.20;94.40;;;;;;4805633;29;20042;-70
2023/06/05 01:38:18;;;;;;;7.40;4.20;;;11.20;94.20;;;;;;4817471;29;20053;-70
2023/06/05 01:40:46;;;;;;;5.82;4.15;;;11.20;94.10;;;;;;4815047;29;20175;-70
2023/06/05 01:43:12;;;;;;;7.97;4.15;;;11.30;94.10;;;;;;4811775;29;20054;-70
2023/06/05 01:45:40;;;;;;;6.60;4.17;;;11.30;94.50;;;;;;4811398;29;20068;-70
2023/06/05 01:48:10;;;;;;;8.20;4.50;;;11.30;94.30;;;;;;4796026;29;20455;-70
2023/06/05 01:50:37;;;;;;;5.70;4.30;;;11.30;94.60;;;;;;4796311;29;20133;-70
2023/06/05 01:53:04;;;;;;;7.55;3.97;;;11.30;94.20;;;;;;4819750;29;20142;-70
2023/06/05 01:55:30;;;;;;;5.93;4.05;;;11.30;94.20;;;;;;4816908;29;20046;-70
2023/06/05 01:57:56;;;;;;;7.25;4.07;;;11.30;94.10;;;;;;4811801;29;20058;-70
2023/06/05 02:00:22;;;;;;;5.50;3.90;;;11.30;94.10;;;;;;4790208;29;20107;-70
2023/06/05 02:02:49;;;;;;;5.33;3.13;;;11.30;94.10;;;;;;4830169;29;20126;-70
2023/06/05 02:05:17;;;;;;;6.18;3.70;;;11.30;93.90;;;;;;4822639;29;20356;-70
2023/06/05 02:07:48;;;;;;;4.65;3.10;;;11.30;94.30;;;;;;4814495;29;20039;-70
2023/06/05 02:10:15;;;;;;;5.25;3.22;;;11.30;94.10;;;;;;4813173;29;20054;-69
2023/06/05 02:12:42;;;;;;;4.25;3.17;;;11.30;94.10;;;;;;4812944;29;20064;-70
2023/06/05 02:15:12;;;;;;;4.97;3.15;;;11.30;94.10;;;;;;4818292;29;20050;-70
2023/06/05 02:17:44;;;;;;;5.22;3.03;;;11.30;94.00;;;;;;4820223;29;20050;-70
2023/06/05 02:20:15;;;;;;;4.10;3.00;;;11.30;93.70;;;;;;4817451;29;20117;-70
2023/06/05 02:22:41;;;;;;;4.68;3.45;;;11.30;93.80;;;;;;4796221;29;20047;-70
2023/06/05 02:25:07;;;;;;;4.35;2.38;;;11.30;93.40;;;;;;4798504;29;20060;-70
2023/06/05 02:27:33;;;;;;;4.10;2.50;;;11.30;93.20;;;;;;4813725;29;20054;-70
2023/06/05 02:29:59;;;;;;;4.70;3.13;;;11.30;93.10;;;;;;4819058;29;20609;-70
2023/06/05 02:32:26;;;;;;;3.57;2.30;;;11.30;93.30;;;;;;4817999;29;20530;-70
2023/06/05 02:34:52;;;;;;;3.83;2.55;;;11.30;93.00;;;;;;4818753;29;20129;-70
2023/06/05 02:37:18;;;;;;;2.63;2.13;;;11.30;92.90;;;;;;4813545;29;20125;-70
2023/06/05 02:39:45;;;;;;;4.13;2.85;;;11.30;92.90;;;;;;4819572;29;20127;-70
2023/06/05 02:42:12;;;;;;;3.17;2.58;;;11.30;92.80;;;;;;4797036;29;20046;-70
2023/06/05 02:44:38;;;;;;;4.60;2.80;;;11.30;92.80;;;;;;4807687;29;20054;-70
2023/06/05 02:47:04;;;;;;;5.47;2.90;;;11.30;92.90;;;;;;4804041;29;20078;-70
2023/06/05 02:49:31;;;;;;;4.78;2.53;;;11.30;92.60;;;;;;4807550;29;20444;-70
2023/06/05 02:51:57;;;;;;;4.00;2.70;;;11.30;92.80;;;;;;4808047;29;20141;-70
2023/06/05 02:54:23;;;;;;;6.57;2.67;;;11.30;92.80;;;;;;4822007;29;20228;-70
2023/06/05 02:56:49;;;;;;;4.07;2.70;;;11.30;92.60;;;;;;4821585;29;20038;-70
2023/06/05 02:59:15;;;;;;;5.35;3.35;;;11.30;92.20;;;;;;4822079;29;20050;-69
2023/06/05 03:01:47;;;;;;;3.70;2.83;;;11.30;92.10;;;;;;4826609;29;20065;-69
2023/06/05 03:04:13;;;;;;;5.32;4.00;;;11.30;91.90;;;;;;4812801;29;20998;-69
2023/06/05 03:06:43;;;;;;;4.73;3.33;;;11.40;92.00;;;;;;4820316;29;20085;-70
2023/06/05 03:09:09;;;;;;;8.45;3.97;;;11.30;92.30;;;;;;4814612;29;20144;-70
2023/06/05 03:11:34;;;;;;;7.07;4.10;;;11.30;92.00;;;;;;4810181;29;20173;-69
2023/06/05 03:14:00;;;;;;;5.90;3.90;;;11.30;92.10;;;;;;4813626;29;20653;-70
2023/06/05 03:16:32;;;;;;;6.43;4.13;;;11.30;91.90;;;;;;4806371;29;20077;-69
2023/06/05 03:18:58;;;;;;;6.90;5.10;;;11.30;91.60;;;;;;4806548;29;20483;-70
2023/06/05 03:21:24;;;;;;;7.07;4.57;;;11.30;91.50;;;;;;4806626;29;20125;-70
2023/06/05 03:23:50;;;;;;;7.28;5.10;;;11.30;91.90;;;;;;4819502;29;20597;-70
2023/06/05 03:26:15;;;;;;;5.93;4.67;;;11.30;91.80;;;;;;4810041;29;20048;-70
2023/06/05 03:28:42;;;;;;;6.93;5.03;;;11.30;91.60;;;;;;4807471;29;20091;-70
2023/06/05 03:31:10;;;;;;;8.80;6.10;;;11.30;91.60;;;;;;4818023;29;20500;-70
2023/06/05 03:33:35;;;;;;;8.00;5.93;;;11.30;91.80;;;;;;4821917;29;20049;-70
2023/06/05 03:36:01;;;;;;;8.17;5.57;;;11.30;91.70;;;;;;4795212;29;20042;-70
2023/06/05 03:38:27;;;;;;;9.20;5.90;;;11.30;91.70;;;;;;4829606;29;20518;-70
2023/06/05 03:40:53;;;;;;;8.43;6.13;;;11.40;91.60;;;;;;4818618;29;20068;-70
2023/06/05 03:43:19;;;;;;;8.10;6.40;;;11.40;91.50;;;;;;4822791;29;20092;-70
2023/06/05 03:45:45;;;;;;;8.60;6.80;;;11.40;91.70;;;;;;4811572;29;20050;-70
2023/06/05 03:48:11;;;;;;;9.03;6.63;;;11.40;91.90;;;;;;4815723;29;20049;-70
2023/06/05 03:50:41;;;;;;;7.35;5.90;;;11.40;91.60;;;;;;4806597;29;20119;-70
2023/06/05 03:53:08;;;;;;;8.45;5.95;;;11.40;91.30;;;;;;4805864;29;20654;-70
2023/06/05 03:55:41;;;;;;;7.47;5.78;;;11.50;91.60;;;;;;4830387;29;20050;-70
2023/06/05 03:58:13;;;;;;;7.88;6.38;;;11.50;91.50;;;;;;4822522;29;20456;-70
2023/06/05 04:00:44;;;;;;;8.07;6.22;;;11.50;91.40;;;;;;4810438;29;20050;-70
2023/06/05 04:03:10;;;;;;;7.90;6.25;;;11.50;91.50;;;;;;4816303;29;20488;-70
2023/06/05 04:05:38;;;;;;;9.68;6.22;;;11.60;91.40;;;;;;4820725;29;20151;-70
2023/06/05 04:08:06;;;;;;;9.00;6.40;;;11.60;91.60;;;;;;4792812;29;20050;-69
2023/06/05 04:10:32;;;;;;;9.07;6.10;;;11.60;91.60;;;;;;4803615;29;20050;-69
2023/06/05 04:12:58;;;;;;;8.73;6.07;;;11.70;91.60;;;;;;4816772;29;20071;-69
2023/06/05 04:15:25;;;;;;;10.33;6.80;;;11.70;91.60;;;;;;4822344;29;20114;-70
2023/06/05 04:17:50;;;;;;;8.43;5.93;;;11.70;91.40;;;;;;4822961;29;20037;-70
2023/06/05 04:20:16;;;;;;;9.20;6.27;;;11.70;91.30;;;;;;4819337;29;20050;-70
2023/06/05 04:22:42;;;;;;;8.67;6.23;;;11.70;91.70;;;;;;4812547;29;20399;-70
2023/06/05 04:25:10;;;;;;;7.43;5.95;;;11.80;91.40;;;;;;4821763;29;20049;-70
2023/06/05 04:27:40;;;;;;;8.98;6.47;;;11.80;91.40;;;;;;4825226;29;20047;-70
2023/06/05 04:30:07;;;;;;;9.60;6.20;;;11.80;91.10;;;;;;4810907;29;20129;-70
2023/06/05 04:32:34;;;;;;;8.27;5.30;;;11.80;91.00;;;;;;4817616;29;20046;-70
2023/06/05 04:35:00;;;;;;;7.05;5.45;;;11.90;90.80;;;;;;4822633;29;20049;-70
2023/06/05 04:37:26;;;;;;;7.03;5.18;;;11.90;90.70;;;;;;4807250;29;20046;-70
2023/06/05 04:39:52;;;;;;;7.20;5.27;;;11.90;90.70;;;;;;4815914;29;20491;-70
2023/06/05 04:42:18;;;;;;;7.03;4.83;;;12.00;90.70;;;;;;4800136;29;20514;-70
2023/06/05 04:44:43;;;;;;;6.23;4.70;;;12.00;90.50;;;;;;4816444;29;20050;-70
2023/06/05 04:47:09;;;;;;;6.90;4.30;;;12.00;90.60;;;;;;4803104;29;20507;-70
2023/06/05 04:49:35;;;;;;;6.00;4.77;;;12.00;90.50;;;;;;4816118;29;20407;-70
2023/06/05 04:52:01;;;;;;;6.60;4.17;;;12.00;90.30;;;;;;4805704;29;20053;-70
2023/06/05 04:54:26;;;;;;;5.23;3.80;;;12.10;90.50;;;;;;4806259;29;20057;-70
2023/06/05 04:56:52;;;;;;;5.73;3.50;;;12.20;90.20;;;;;;4815608;29;20049;-70
2023/06/05 04:59:18;;;;;;;4.73;3.20;;;12.20;89.80;;;;;;4820947;29;20050;-70
2023/06/05 05:01:44;;;;;;;4.30;2.73;;;12.30;89.30;;;;;;4796374;29;20301;-70
2023/06/05 05:04:11;;;;;;;3.53;2.20;;;12.30;89.00;;;;;;4793425;29;20054;-70
2023/06/05 05:06:38;;;;;;;3.87;2.47;;;12.30;88.10;;;;;;4797178;29;20586;-70
2023/06/05 05:09:04;;;;;;;3.13;2.00;;;12.30;88.20;;;;;;4794993;29;20287;-70
2023/06/05 05:11:30;;;;;;;4.37;2.33;;;12.40;88.70;;;;;;4787874;29;20781;-70
2023/06/05 05:13:56;;;;;;;3.97;2.40;;;12.50;88.50;;;;;;4793031;29;20326;-70
2023/06/05 05:16:22;;;;;;;3.83;2.00;;;12.50;87.90;;;;;;4793503;29;20043;-70
2023/06/05 05:18:48;;;;;;;5.00;2.00;;;12.60;87.40;;;;;;4803233;29;20630;-70
2023/06/05 05:21:13;;;;;;;2.63;1.77;;;12.70;87.10;;;;;;4792065;29;20296;-70
2023/06/05 05:23:39;;;;;;;3.67;2.00;;;12.80;86.90;;;;;;4788952;29;20093;-70
2023/06/05 05:26:06;;;;;;;4.10;1.87;;;12.80;85.90;;;;;;4800251;29;20054;-70
2023/06/05 05:28:32;;;;;;;3.53;2.00;;;12.90;85.80;;;;;;4801853;29;20043;-70
2023/06/05 05:30:58;;;;;;;3.60;1.90;;;13.00;85.60;;;;;;4790713;29;20300;-70
2023/06/05 05:33:24;;;;;;;3.03;1.67;;;13.20;84.30;;;;;;4785011;29;20042;-70
2023/06/05 05:35:50;;;;;;;4.10;1.90;;;13.30;83.40;;;;;;4786848;29;20050;-70
2023/06/05 05:38:16;;;;;;;3.17;1.90;;;13.40;82.70;;;;;;4796532;29;20130;-70
2023/06/05 05:40:42;;;;;;;2.70;1.90;;;13.40;81.90;;;;;;4785260;29;20492;-70
2023/06/05 05:43:08;;;;;;;3.23;1.70;;;13.50;81.60;;;;;;4791862;29;20360;-70
2023/06/05 05:45:33;;;;;;;2.93;1.67;;;13.50;81.30;;;;;;4789306;29;20547;-70
2023/06/05 05:47:59;;;;;;;3.60;1.63;;;13.50;80.70;;;;;;4792307;29;20514;-70
2023/06/05 05:50:25;;;;;;;3.73;1.73;;;13.50;80.40;;;;;;4792395;29;20505;-70
2023/06/05 05:52:53;;;;;;;2.87;1.60;;;13.60;80.30;;;;;;4792139;29;20043;-70
2023/06/05 05:55:18;;;;;;;2.50;1.60;;;13.70;79.10;;;;;;4774405;29;20142;-70
2023/06/05 05:57:44;;;;;;;3.30;1.20;;;13.80;78.90;;;;;;4802126;29;20387;-70
2023/06/05 06:00:12;;;;;;;4.50;1.60;;;13.90;78.60;;;;;;4790144;29;20099;-70
2023/06/05 06:02:41;;;;;;;2.43;1.50;;;13.90;78.10;;;;;;4799369;29;20073;-70
2023/06/05 06:05:08;;;;;;;3.83;1.63;;;14.00;76.50;;;;;;4805546;29;21169;-70
2023/06/05 06:07:35;;;;;;;2.13;1.47;;;14.00;77.40;;;;;;4806431;29;20310;-70
2023/06/05 06:10:02;;;;;;;4.30;1.47;;;14.10;77.40;;;;;;4806345;29;20306;-70
2023/06/05 06:12:28;;;;;;;5.10;1.63;;;14.20;76.80;;;;;;4829413;29;20398;-70
2023/06/05 06:14:56;;;;;;;3.80;1.97;;;14.30;76.70;;;;;;4800727;29;20295;-70
2023/06/05 06:17:23;;;;;;;3.37;2.20;;;14.30;75.40;;;;;;4820007;29;20048;-70
2023/06/05 06:19:49;;;;;;;3.07;1.80;;;14.40;75.70;;;;;;4810769;29;20327;-70
2023/06/05 06:22:15;;;;;;;4.00;2.00;;;14.40;75.20;;;;;;4819330;29;20305;-70
2023/06/05 06:24:42;;;;;;;3.67;1.80;;;14.50;75.30;;;;;;4812346;29;20796;-70
2023/06/05 06:27:10;;;;;;;2.83;1.73;;;14.50;74.60;;;;;;4797977;29;20529;-70
2023/06/05 06:29:46;;;;;;;3.00;2.00;;;14.40;75.20;;;;;;4792645;29;20705;-70
2023/06/05 06:32:11;;;;;;;4.40;2.30;;;14.40;75.20;;;;;;4803661;29;20307;-70
2023/06/05 06:34:38;;;;;;;3.60;1.80;;;14.50;75.30;;;;;;4803346;29;20619;-70
2023/06/05 06:37:04;;;;;;;4.70;2.27;;;14.50;74.20;;;;;;4814803;29;20046;-70
2023/06/05 06:39:31;;;;;;;3.53;2.10;;;14.70;74.20;;;;;;4813017;29;20294;-70
2023/06/05 06:41:57;;;;;;;5.50;2.03;;;14.80;74.00;;;;;;4789899;29;20441;-70
2023/06/05 06:44:23;;;;;;;3.90;2.13;;;14.80;74.20;;;;;;4805134;29;20287;-70
2023/06/05 06:46:48;;;;;;;5.80;2.27;;;14.90;73.70;;;;;;4799338;29;20133;-70
2023/06/05 06:49:14;;;;;;;3.33;2.20;;;15.00;73.30;;;;;;4815838;29;20382;-70
2023/06/05 06:51:40;;;;;;;3.50;2.20;;;15.00;73.30;;;;;;4816098;29;20053;-70
2023/06/05 06:54:06;;;;;;;2.73;2.10;;;14.90;73.00;;;;;;4826591;29;20109;-70
2023/06/05 06:56:31;;;;;;;5.30;2.77;;;15.10;73.50;;;;;;4820603;29;20053;-70
2023/06/05 06:58:57;;;;;;;3.57;2.27;;;15.10;73.20;;;;;;4816257;29;20406;-70
2023/06/05 07:01:24;;;;;;;4.70;2.37;;;15.20;72.60;;;;;;4812514;29;20043;-70
2023/06/05 07:03:50;;;;;;;3.23;2.33;;;15.20;72.30;;;;;;4818636;29;20458;-70
2023/06/05 07:06:16;;;;;;;4.03;2.80;;;15.20;72.20;;;;;;4821032;29;20287;-70
2023/06/05 07:08:41;;;;;;;5.27;2.40;;;15.30;72.40;;;;;;4815611;29;20041;-71
2023/06/05 07:11:07;;;;;;;2.93;2.33;;;15.50;72.00;;;;;;4811923;29;20049;-72
2023/06/05 07:13:33;;;;;;;3.30;2.30;;;15.80;72.10;;;;;;4816176;29;20056;-72
2023/06/05 07:15:59;;;;;;;2.93;2.20;;;16.00;70.80;;;;;;4812459;29;20038;-71
2023/06/05 07:18:28;;;;;;;3.77;2.43;;;16.10;69.40;;;;;;4812294;29;20505;-72
2023/06/05 07:20:54;;;;;;;4.30;2.40;;;16.40;70.00;;;;;;4819499;29;20788;-72
2023/06/05 07:23:19;;;;;;;4.23;2.33;;;16.50;68.60;;;;;;4796527;29;20311;-72
2023/06/05 07:25:45;;;;;;;3.97;2.47;;;16.70;68.00;;;;;;4820558;29;20049;-71
2023/06/05 07:28:12;;;;;;;3.73;2.10;;;17.00;67.80;;;;;;4826202;29;20079;-71
2023/06/05 07:30:38;;;;;;;3.53;2.00;;;17.30;66.80;;;;;;4819195;29;20061;-72
2023/06/05 07:33:05;;;;;;;3.20;2.60;;;17.50;65.40;;;;;;4805160;29;20310;-71
2023/06/05 07:35:31;;;;;;;3.17;2.53;;;17.50;64.00;;;;;;4812804;29;20295;-72
2023/06/05 07:37:57;;;;;;;3.53;2.70;;;17.50;64.60;;;;;;4816885;29;20297;-72
2023/06/05 07:40:23;;;;;;;4.50;3.00;;;17.50;64.30;;;;;;4799271;29;20796;-72
2023/06/05 07:42:49;;;;;;;3.37;2.90;;;17.50;63.70;;;;;;4815095;29;20046;-71
2023/06/05 07:45:14;;;;;;;4.70;3.50;;;17.50;64.80;;;;;;4815646;29;20050;-72
2023/06/05 07:47:40;;;;;;;7.33;3.73;;;17.60;64.80;;;;;;4801229;29;20082;-72
2023/06/05 07:50:06;;;;;;;4.90;3.57;;;17.60;64.60;;;;;;4817591;29;20534;-70
2023/06/05 07:52:33;;;;;;;4.83;3.03;;;17.50;64.70;;;;;;4818280;29;20580;-71
2023/06/05 07:54:59;;;;;;;4.80;3.03;;;17.60;64.70;;;;;;4824597;29;20303;-71
2023/06/05 07:57:25;;;;;;;4.47;3.30;;;17.50;64.10;;;;;;4832943;29;20288;-71
2023/06/05 07:59:50;;;;;;;6.53;3.27;;;17.30;64.50;;;;;;4814372;29;20121;-71
2023/06/05 08:02:19;;;;;;;5.00;3.20;;;17.30;64.90;;;;;;4800347;29;20165;-71
2023/06/05 08:04:46;;;;;;;5.50;3.10;;;17.40;64.50;;;;;;4815078;29;20054;-72
2023/06/05 08:07:12;;;;;;;5.53;3.20;;;17.40;63.70;;;;;;4802223;29;20298;-72
2023/06/05 08:09:41;;;;;;;5.10;3.00;;;17.50;64.20;;;;;;4815475;29;20367;-71
2023/06/05 08:12:07;;;;;;;5.07;2.97;;;17.50;63.50;;;;;;4817711;29;20315;-71
2023/06/05 08:14:34;;;;;;;5.20;3.10;;;17.60;63.70;;;;;;4815666;29;20657;-72
2023/06/05 08:17:00;;;;;;;5.53;3.00;;;17.60;63.60;;;;;;4817420;29;20065;-72
2023/06/05 08:19:27;;;;;;;5.03;2.77;;;17.60;63.40;;;;;;4815128;29;20284;-73
2023/06/05 08:21:57;;;;;;;3.47;2.87;;;17.60;62.60;;;;;;4818033;29;20070;-71
2023/06/05 08:24:23;;;;;;;6.17;3.37;;;17.40;63.20;;;;;;4819638;29;20299;-71
2023/06/05 08:26:48;;;;;;;6.13;2.87;;;17.40;63.10;;;;;;4805432;29;20617;-72
2023/06/05 08:29:14;;;;;;;3.97;2.90;;;17.50;63.00;;;;;;4820942;29;20354;-71
2023/06/05 08:31:40;;;;;;;4.50;2.67;;;17.50;62.40;;;;;;4804132;29;20050;-72
2023/06/05 08:34:06;;;;;;;6.80;3.17;;;17.40;62.70;;;;;;4818132;29;20050;-71
2023/06/05 08:36:32;;;;;;;4.10;2.90;;;17.30;62.10;;;;;;4813753;29;20042;-72
2023/06/05 08:38:59;;;;;;;6.40;3.30;;;17.30;63.60;;;;;;4814220;29;20050;-72
2023/06/05 08:41:25;;;;;;;5.80;3.13;;;17.40;63.80;;;;;;4817222;29;20678;-71
2023/06/05 08:43:51;;;;;;;5.00;3.20;;;17.60;62.80;;;;;;4835304;29;20776;-72
2023/06/05 08:46:17;;;;;;;4.87;3.43;;;17.60;62.50;;;;;;4813283;29;20379;-71
2023/06/05 08:48:50;;;;;;;4.00;3.07;;;17.70;62.60;;;;;;4801781;29;20299;-72
2023/06/05 08:51:17;;;;;;;4.40;3.33;;;17.70;62.20;;;;;;4814121;29;20299;-72
2023/06/05 08:53:51;;;;;;;4.30;2.97;;;17.70;62.30;;;;;;4824609;29;20319;-72
2023/06/05 08:56:18;;;;;;;6.25;2.88;;;17.60;61.50;;;;;;4815997;29;20297;-72
2023/06/05 08:58:45;;;;;;;5.43;3.23;;;17.40;62.40;;;;;;4820222;29;20077;-72
2023/06/05 09:01:11;;;;;;;5.50;3.40;;;17.50;62.90;;;;;;4815794;29;20299;-72
2023/06/05 09:03:37;;;;;;;5.37;3.50;;;17.60;62.40;;;;;;4826145;29;20352;-73
2023/06/05 09:06:04;;;;;;;3.83;3.03;;;17.80;62.30;;;;;;4825907;29;20291;-72
2023/06/05 09:08:34;;;;;;;5.13;3.90;;;17.90;62.70;;;;;;4815261;29;20563;-72
2023/06/05 09:11:25;;;;;;;8.23;3.73;;;18.20;61.90;;;;;;4816148;29;20665;-73
2023/06/05 09:13:51;;;;;;;10.83;3.73;;;18.30;61.20;;;;;;4815594;29;20322;-72
2023/06/05 09:16:33;;;;;;;5.30;3.20;;;18.20;61.40;;;;;;4819855;29;20620;-72
2023/06/05 09:18:59;;;;;;;8.23;3.70;;;18.30;62.30;;;;;;4822938;29;20294;-73
2023/06/05 09:21:30;;;;;;;5.20;3.80;;;18.40;61.90;;;;;;4817264;29;20299;-73
2023/06/05 09:24:13;;;;;;;5.70;4.17;;;18.40;61.60;;;;;;4821185;29;20054;-73
2023/06/05 09:27:06;;;;;;;8.47;4.17;;;18.40;61.30;;;;;;4799865;29;20302;-73
2023/06/05 09:29:38;;;;;;;5.70;4.13;;;18.30;61.20;;;;;;4828823;29;20380;-73
2023/06/05 09:32:06;;;;;;;5.30;4.30;;;18.10;61.60;;;;;;4791855;29;20746;-72
2023/06/05 09:34:33;;;;;;;6.63;4.00;;;18.00;61.40;;;;;;4815333;29;20296;-73
2023/06/05 09:37:01;;;;;;;5.07;4.10;;;17.80;62.80;;;;;;4814766;29;20282;-72
2023/06/05 09:39:28;;;;;;;6.23;4.00;;;17.90;62.90;;;;;;4815703;29;20423;-72
2023/06/05 09:41:55;;;;;;;7.30;4.60;;;18.10;63.40;;;;;;4816215;29;20287;-71
2023/06/05 09:44:22;;;;;;;5.03;4.27;;;18.30;62.30;;;;;;4820494;29;20286;-72
2023/06/05 09:46:54;;;;;;;7.10;4.77;;;18.30;61.70;;;;;;4817538;29;20295;-73
2023/06/05 09:49:21;;;;;;;6.27;4.73;;;18.30;62.20;;;;;;4820230;29;20295;-73
2023/06/05 09:51:47;;;;;;;7.47;4.40;;;18.30;61.60;;;;;;4817953;29;20349;-73
2023/06/05 09:54:13;;;;;;;8.33;5.10;;;18.20;61.20;;;;;;4797088;29;20299;-73
2023/06/05 09:56:41;;;;;;;8.90;4.40;;;18.00;61.60;;;;;;4816279;29;20358;-73
2023/06/05 09:59:09;;;;;;;8.60;3.93;;;18.10;62.30;;;;;;4819512;29;20287;-73
2023/06/05 10:01:36;;;;;;;5.63;3.90;;;18.30;61.50;;;;;;4825152;29;20318;-72
2023/06/05 10:04:08;;;;;;;6.93;4.97;;;18.20;62.20;;;;;;4820955;29;20335;-73
2023/06/05 10:06:37;;;;;;;;;;;18.30;62.40;;;;;;4832123;29;20346;-73
2023/06/05 10:09:07;;;;;;;6.47;4.00;;;18.50;61.70;;;;;;4823375;29;20357;-72
2023/06/05 10:11:33;;;;;;;4.50;3.50;;;18.70;61.30;;;;;;4804259;29;20295;-72
2023/06/05 10:14:00;;;;;;;5.70;3.90;;;18.70;60.90;;;;;;4822063;29;20400;-73
2023/06/05 10:16:30;;;;;;;6.77;4.37;;;18.90;59.80;;;;;;4818089;29;20324;-73
2023/06/05 10:19:00;;;;;;;5.83;4.17;;;18.90;59.60;;;;;;4837935;29;20356;-72
2023/06/05 10:21:26;;;;;;;6.10;4.20;;;18.80;59.70;;;;;;4807495;29;20290;-73
2023/06/05 10:23:57;;;;;;;6.07;4.17;;;18.80;61.10;;;;;;4826650;29;20302;-73
2023/06/05 10:26:56;;;;;;;5.40;4.33;;;18.80;60.30;;;;;;4818042;29;20042;-73
2023/06/05 10:29:40;;;;;;;5.63;4.00;;;18.90;59.30;;;;;;4818426;29;20370;-74
2023/06/05 10:32:32;;;;;;;5.22;3.90;;;18.90;61.00;;;;;;4836130;29;20287;-73
2023/06/05 10:35:36;;;;;;;6.90;4.17;;;18.90;59.90;;;;;;4828363;29;20423;-73
2023/06/05 10:38:26;;;;;;;6.83;4.37;;;19.10;61.10;;;;;;4823224;29;20647;-72
2023/06/05 10:40:53;;;;;;;4.87;3.83;;;19.10;58.40;;;;;;4805541;29;20300;-72
2023/06/05 10:43:26;;;;;;;5.80;3.93;;;19.20;60.20;;;;;;4805662;29;20291;-72
2023/06/05 10:45:53;;;;;;;7.90;3.83;;;19.40;59.90;;;;;;4805648;29;20283;-71
2023/06/05 10:48:18;;;;;;;5.37;3.97;;;19.50;58.90;;;;;;4803843;29;20299;-70
2023/06/05 10:50:44;;;;;;;5.67;4.27;;;19.50;59.00;;;;;;4808734;29;20302;-71
2023/06/05 10:53:42;;;;;;;5.23;4.00;;;19.60;59.10;;;;;;4819058;29;20418;-71
2023/06/05 10:56:08;;;;;;;5.03;3.50;;;19.50;57.70;;;;;;4803226;29;20047;-70
2023/06/05 10:58:33;;;;;;;6.73;4.37;;;19.40;58.30;;;;;;4813026;29;20369;-71
2023/06/05 11:01:31;;;;;;;6.03;4.10;;;19.20;58.50;;;;;;4806661;29;20519;-71
2023/06/05 11:04:00;;;;;;;5.57;3.50;;;18.80;57.90;;;;;;4788145;29;20049;-71
2023/06/05 11:06:27;;;;;;;5.00;3.97;;;18.70;60.40;;;;;;4822140;29;20034;-71
2023/06/05 11:09:13;;;;;;;5.10;3.63;;;18.80;59.80;;;;;;4813402;29;20287;-71
2023/06/05 11:12:01;;;;;;;5.27;3.60;;;18.90;60.20;;;;;;4810574;29;20399;-71
2023/06/05 11:14:47;;;;;;;5.40;4.00;;;19.10;59.80;;;;;;4821450;29;20133;-71
2023/06/05 11:17:30;;;;;;;5.87;4.07;;;19.40;59.70;;;;;;4813830;29;20647;-71
2023/06/05 11:19:56;;;;;;;4.93;3.23;;;19.50;58.60;;;;;;4815245;29;20106;-71
2023/06/05 11:22:22;;;;;;;6.33;3.83;;;19.70;58.30;;;;;;4804468;29;20085;-71
2023/06/05 11:25:14;;;;;;;4.77;4.10;;;19.60;58.50;;;;;;4805596;29;20305;-71
2023/06/05 11:27:46;;;;;;;6.97;3.80;;;19.60;58.70;;;;;;4803109;29;20471;-71
2023/06/05 11:30:18;;;;;;;6.67;3.37;;;19.70;59.40;;;;;;4821662;29;20053;-72
2023/06/05 11:32:44;;;;;;;6.87;3.80;;;19.80;58.00;;;;;;4808482;29;20523;-71
2023/06/05 11:35:10;;;;;;;4.80;3.47;;;19.90;57.60;;;;;;4819897;29;20046;-71
2023/06/05 11:37:37;;;;;;;5.33;4.10;;;19.90;57.90;;;;;;4817884;29;20125;-71
2023/06/05 11:40:11;;;;;;;5.67;3.50;;;19.90;57.70;;;;;;4814478;29;20038;-72
2023/06/05 11:42:40;;;;;;;4.43;3.43;;;20.00;57.10;;;;;;4815629;29;20193;-71
2023/06/05 11:45:13;;;;;;;6.80;4.07;;;20.10;56.90;;;;;;4792127;29;20658;-71
2023/06/05 11:47:39;;;;;;;4.77;3.70;;;20.20;55.90;;;;;;4804567;29;20060;-71
2023/06/05 11:50:12;;;;;;;5.13;3.20;;;20.10;55.70;;;;;;4805101;29;20436;-71
2023/06/05 11:52:39;;;;;;;4.53;3.50;;;19.90;55.60;;;;;;4810080;29;20519;-71
2023/06/05 11:55:14;;;;;;;5.30;4.10;;;20.00;56.20;;;;;;4797205;29;20051;-71
2023/06/05 11:57:42;;;;;;;7.07;4.57;;;20.10;55.90;;;;;;4792107;29;20053;-71
2023/06/05 12:00:11;;;;;;;4.77;3.90;;;20.20;55.40;;;;;;4805359;29;20046;-71
2023/06/05 12:02:38;;;;;;;6.17;4.10;;;20.00;54.60;;;;;;4817221;29;20065;-73
2023/06/05 12:05:08;;;;;;;5.20;4.00;;;19.70;55.30;;;;;;4814735;29;20054;-73
2023/06/05 12:07:37;;;;;;;4.23;3.10;;;19.70;55.90;;;;;;4801928;29;20107;-72
2023/06/05 12:10:08;;;;;;;4.60;3.87;;;19.80;56.50;;;;;;4826355;29;20131;-72
2023/06/05 12:12:35;;;;;;;5.10;3.83;;;19.90;56.20;;;;;;4832270;29;20419;-73
2023/06/05 12:15:21;;;;;;;5.30;3.90;;;19.90;56.20;;;;;;4816900;29;20085;-72
2023/06/05 12:17:50;;;;;;;5.40;3.93;;;19.90;55.40;;;;;;4825365;29;20035;-73
2023/06/05 12:20:17;;;;;;;5.60;4.30;;;20.00;56.40;;;;;;4826051;29;20073;-72
2023/06/05 12:22:43;;;;;;;6.40;3.60;;;20.00;55.50;;;;;;4822453;29;20046;-73
2023/06/05 12:25:19;;;;;;;5.77;3.87;;;20.20;56.10;;;;;;4809129;29;20106;-72
2023/06/05 12:27:46;;;;;;;8.57;4.70;;;20.40;54.70;;;;;;4826608;29;20100;-72
2023/06/05 12:30:14;;;;;;;5.03;4.23;;;20.40;54.80;;;;;;4823408;29;20582;-72
2023/06/05 12:32:40;;;;;;;6.67;4.80;;;20.40;55.10;;;;;;4801377;29;20089;-73
2023/06/05 12:35:21;;;;;;;5.40;3.97;;;20.30;54.30;;;;;;4809281;29;20038;-74
2023/06/05 12:37:51;;;;;;;4.90;3.97;;;20.30;54.30;;;;;;4818136;29;20058;-74
2023/06/05 12:40:20;;;;;;;5.73;3.57;;;20.30;55.20;;;;;;4809974;29;20034;-73
2023/06/05 12:42:48;;;;;;;7.03;4.87;;;20.30;54.40;;;;;;4821963;29;20111;-73
2023/06/05 12:45:16;;;;;;;6.77;4.60;;;20.40;54.60;;;;;;4816720;29;20046;-72
2023/06/05 12:47:43;;;;;;;6.87;4.50;;;20.20;54.80;;;;;;4820193;29;20081;-72
2023/06/05 12:50:13;;;;;;;6.63;4.90;;;20.10;55.60;;;;;;4822850;29;20088;-73
2023/06/05 12:52:42;;;;;;;5.30;4.50;;;20.10;54.90;;;;;;4820784;29;20050;-73
2023/06/05 12:55:09;;;;;;;7.43;4.20;;;20.20;54.80;;;;;;4825631;29;20553;-74